sensor_id;sensor_type;location;lat;lon;timestamp;P1;durP1;ratioP1;P2;durP2;ratioP2
76978;SDS011;65911;47.502;19.148;2023-08-06T00:00:40;6.57;;;3.80;;
76978;SDS011;65911;47.502;19.148;2023-08-06T00:03:42;5.22;;;4.05;;
76978;SDS011;65911;47.502;19.148;2023-08-06T00:06:45;4.28;;;3.88;;
76978;SDS011;65911;47.502;19.148;2023-08-06T00:09:47;3.88;;;3.47;;
76978;SDS011;65911;47.502;19.148;2023-08-06T00:12:49;6.03;;;3.60;;
76978;SDS011;65911;47.502;19.148;2023-08-06T00:15:51;5.50;;;3.83;;
76978;SDS011;65911;47.502;19.148;2023-08-06T00:18:55;5.05;;;3.60;;
76978;SDS011;65911;47.502;19.148;2023-08-06T00:21:57;4.57;;;3.40;;
76978;SDS011;65911;47.502;19.148;2023-08-06T00:24:59;5.32;;;3.95;;
76978;SDS011;65911;47.502;19.148;2023-08-06T00:28:02;4.60;;;3.47;;
76978;SDS011;65911;47.502;19.148;2023-08-06T00:31:04;6.43;;;4.20;;
76978;SDS011;65911;47.502;19.148;2023-08-06T00:34:06;5.55;;;3.20;;
76978;SDS011;65911;47.502;19.148;2023-08-06T00:37:09;7.15;;;4.55;;
76978;SDS011;65911;47.502;19.148;2023-08-06T00:40:11;7.22;;;4.78;;
76978;SDS011;65911;47.502;19.148;2023-08-06T00:43:13;8.93;;;4.65;;
76978;SDS011;65911;47.502;19.148;2023-08-06T00:46:15;7.72;;;4.63;;
76978;SDS011;65911;47.502;19.148;2023-08-06T00:49:18;6.13;;;4.70;;
76978;SDS011;65911;47.502;19.148;2023-08-06T00:52:20;10.30;;;5.07;;
76978;SDS011;65911;47.502;19.148;2023-08-06T00:55:22;6.68;;;4.75;;
76978;SDS011;65911;47.502;19.148;2023-08-06T00:58:25;8.45;;;4.75;;
76978;SDS011;65911;47.502;19.148;2023-08-06T01:01:28;7.23;;;4.37;;
76978;SDS011;65911;47.502;19.148;2023-08-06T01:04:30;6.47;;;4.47;;
76978;SDS011;65911;47.502;19.148;2023-08-06T01:07:41;6.10;;;4.72;;
76978;SDS011;65911;47.502;19.148;2023-08-06T01:11:01;7.22;;;4.78;;
76978;SDS011;65911;47.502;19.148;2023-08-06T01:14:13;5.70;;;4.30;;
76978;SDS011;65911;47.502;19.148;2023-08-06T01:17:20;7.95;;;4.60;;
76978;SDS011;65911;47.502;19.148;2023-08-06T01:20:27;6.30;;;4.00;;
76978;SDS011;65911;47.502;19.148;2023-08-06T01:23:30;6.93;;;4.27;;
76978;SDS011;65911;47.502;19.148;2023-08-06T01:26:37;7.90;;;4.10;;
76978;SDS011;65911;47.502;19.148;2023-08-06T01:29:44;6.85;;;3.78;;
76978;SDS011;65911;47.502;19.148;2023-08-06T01:32:53;5.37;;;3.23;;
76978;SDS011;65911;47.502;19.148;2023-08-06T01:35:57;4.72;;;3.60;;
76978;SDS011;65911;47.502;19.148;2023-08-06T01:38:59;4.78;;;3.53;;
76978;SDS011;65911;47.502;19.148;2023-08-06T01:42:02;6.05;;;3.75;;
76978;SDS011;65911;47.502;19.148;2023-08-06T01:45:04;6.60;;;3.97;;
76978;SDS011;65911;47.502;19.148;2023-08-06T01:48:07;6.70;;;3.85;;
76978;SDS011;65911;47.502;19.148;2023-08-06T01:51:10;5.53;;;3.53;;
76978;SDS011;65911;47.502;19.148;2023-08-06T01:54:13;3.70;;;3.03;;
76978;SDS011;65911;47.502;19.148;2023-08-06T01:57:15;4.68;;;3.20;;
76978;SDS011;65911;47.502;19.148;2023-08-06T02:00:17;5.25;;;2.97;;
76978;SDS011;65911;47.502;19.148;2023-08-06T02:03:21;5.47;;;3.43;;
76978;SDS011;65911;47.502;19.148;2023-08-06T02:06:23;5.30;;;3.38;;
76978;SDS011;65911;47.502;19.148;2023-08-06T02:09:25;4.72;;;3.42;;
76978;SDS011;65911;47.502;19.148;2023-08-06T02:12:28;7.07;;;3.85;;
76978;SDS011;65911;47.502;19.148;2023-08-06T02:15:30;4.43;;;3.33;;
76978;SDS011;65911;47.502;19.148;2023-08-06T02:18:33;6.57;;;4.20;;
76978;SDS011;65911;47.502;19.148;2023-08-06T02:21:35;5.60;;;3.97;;
76978;SDS011;65911;47.502;19.148;2023-08-06T02:24:37;7.03;;;3.73;;
76978;SDS011;65911;47.502;19.148;2023-08-06T02:27:39;8.73;;;5.22;;
76978;SDS011;65911;47.502;19.148;2023-08-06T02:30:49;5.88;;;3.53;;
76978;SDS011;65911;47.502;19.148;2023-08-06T02:33:52;5.50;;;3.27;;
76978;SDS011;65911;47.502;19.148;2023-08-06T02:36:55;4.95;;;3.47;;
76978;SDS011;65911;47.502;19.148;2023-08-06T02:39:58;3.70;;;2.80;;
76978;SDS011;65911;47.502;19.148;2023-08-06T02:43:00;3.67;;;2.67;;
76978;SDS011;65911;47.502;19.148;2023-08-06T02:46:02;4.47;;;3.22;;
76978;SDS011;65911;47.502;19.148;2023-08-06T02:49:06;4.82;;;3.20;;
76978;SDS011;65911;47.502;19.148;2023-08-06T02:52:08;6.40;;;2.78;;
76978;SDS011;65911;47.502;19.148;2023-08-06T02:55:10;4.83;;;3.00;;
76978;SDS011;65911;47.502;19.148;2023-08-06T02:58:17;3.50;;;3.00;;
76978;SDS011;65911;47.502;19.148;2023-08-06T03:01:33;6.20;;;3.08;;
76978;SDS011;65911;47.502;19.148;2023-08-06T03:04:42;3.63;;;3.10;;
76978;SDS011;65911;47.502;19.148;2023-08-06T03:07:45;6.10;;;3.20;;
76978;SDS011;65911;47.502;19.148;2023-08-06T03:10:54;2.97;;;2.45;;
76978;SDS011;65911;47.502;19.148;2023-08-06T03:13:56;3.35;;;2.47;;
76978;SDS011;65911;47.502;19.148;2023-08-06T03:16:58;4.65;;;3.05;;
76978;SDS011;65911;47.502;19.148;2023-08-06T03:20:01;3.53;;;2.78;;
76978;SDS011;65911;47.502;19.148;2023-08-06T03:23:04;3.20;;;2.90;;
76978;SDS011;65911;47.502;19.148;2023-08-06T03:26:06;3.43;;;2.57;;
76978;SDS011;65911;47.502;19.148;2023-08-06T03:29:08;3.75;;;2.70;;
76978;SDS011;65911;47.502;19.148;2023-08-06T03:32:10;3.10;;;2.75;;
76978;SDS011;65911;47.502;19.148;2023-08-06T03:35:13;4.87;;;2.77;;
76978;SDS011;65911;47.502;19.148;2023-08-06T03:38:24;3.50;;;2.60;;
76978;SDS011;65911;47.502;19.148;2023-08-06T03:41:27;3.10;;;2.40;;
76978;SDS011;65911;47.502;19.148;2023-08-06T03:44:33;3.95;;;2.70;;
76978;SDS011;65911;47.502;19.148;2023-08-06T03:47:35;3.38;;;2.67;;
76978;SDS011;65911;47.502;19.148;2023-08-06T03:50:55;4.20;;;2.70;;
76978;SDS011;65911;47.502;19.148;2023-08-06T03:53:59;3.15;;;2.45;;
76978;SDS011;65911;47.502;19.148;2023-08-06T03:57:01;3.60;;;2.47;;
76978;SDS011;65911;47.502;19.148;2023-08-06T04:00:03;2.90;;;2.17;;
76978;SDS011;65911;47.502;19.148;2023-08-06T04:03:15;3.00;;;2.47;;
76978;SDS011;65911;47.502;19.148;2023-08-06T04:06:19;2.70;;;2.07;;
76978;SDS011;65911;47.502;19.148;2023-08-06T04:09:21;2.70;;;1.90;;
76978;SDS011;65911;47.502;19.148;2023-08-06T04:12:23;2.50;;;2.08;;
76978;SDS011;65911;47.502;19.148;2023-08-06T04:15:26;6.35;;;2.78;;
76978;SDS011;65911;47.502;19.148;2023-08-06T04:18:31;3.13;;;2.20;;
76978;SDS011;65911;47.502;19.148;2023-08-06T04:21:34;4.03;;;2.30;;
76978;SDS011;65911;47.502;19.148;2023-08-06T04:24:36;2.95;;;2.33;;
76978;SDS011;65911;47.502;19.148;2023-08-06T04:27:38;9.43;;;2.37;;
76978;SDS011;65911;47.502;19.148;2023-08-06T04:30:44;4.90;;;2.08;;
76978;SDS011;65911;47.502;19.148;2023-08-06T04:33:46;3.50;;;2.17;;
76978;SDS011;65911;47.502;19.148;2023-08-06T04:36:50;3.37;;;2.20;;
76978;SDS011;65911;47.502;19.148;2023-08-06T04:39:53;4.07;;;1.77;;
76978;SDS011;65911;47.502;19.148;2023-08-06T04:42:55;3.83;;;2.28;;
76978;SDS011;65911;47.502;19.148;2023-08-06T04:45:58;3.65;;;2.28;;
76978;SDS011;65911;47.502;19.148;2023-08-06T04:49:00;4.68;;;2.40;;
76978;SDS011;65911;47.502;19.148;2023-08-06T04:52:02;4.38;;;2.47;;
76978;SDS011;65911;47.502;19.148;2023-08-06T04:55:05;4.18;;;2.15;;
76978;SDS011;65911;47.502;19.148;2023-08-06T04:58:11;3.73;;;1.83;;
76978;SDS011;65911;47.502;19.148;2023-08-06T05:01:14;4.22;;;1.80;;
76978;SDS011;65911;47.502;19.148;2023-08-06T05:04:17;2.22;;;1.48;;
76978;SDS011;65911;47.502;19.148;2023-08-06T05:07:19;2.30;;;1.47;;
76978;SDS011;65911;47.502;19.148;2023-08-06T05:10:24;2.63;;;1.08;;
76978;SDS011;65911;47.502;19.148;2023-08-06T05:13:28;1.58;;;0.85;;
76978;SDS011;65911;47.502;19.148;2023-08-06T05:16:30;1.67;;;1.17;;
76978;SDS011;65911;47.502;19.148;2023-08-06T05:19:32;2.45;;;1.13;;
76978;SDS011;65911;47.502;19.148;2023-08-06T05:22:35;1.75;;;0.68;;
76978;SDS011;65911;47.502;19.148;2023-08-06T05:25:37;0.68;;;0.47;;
76978;SDS011;65911;47.502;19.148;2023-08-06T05:28:40;0.90;;;0.60;;
76978;SDS011;65911;47.502;19.148;2023-08-06T05:31:43;0.65;;;0.38;;
76978;SDS011;65911;47.502;19.148;2023-08-06T05:34:45;0.50;;;0.30;;
76978;SDS011;65911;47.502;19.148;2023-08-06T05:37:47;0.50;;;0.43;;
76978;SDS011;65911;47.502;19.148;2023-08-06T05:40:50;1.55;;;0.28;;
76978;SDS011;65911;47.502;19.148;2023-08-06T05:43:52;0.75;;;0.40;;
76978;SDS011;65911;47.502;19.148;2023-08-06T05:46:54;0.65;;;0.30;;
76978;SDS011;65911;47.502;19.148;2023-08-06T05:49:56;0.50;;;0.30;;
76978;SDS011;65911;47.502;19.148;2023-08-06T05:52:59;0.40;;;0.20;;
76978;SDS011;65911;47.502;19.148;2023-08-06T05:56:03;0.82;;;0.35;;
76978;SDS011;65911;47.502;19.148;2023-08-06T05:59:05;0.67;;;0.10;;
76978;SDS011;65911;47.502;19.148;2023-08-06T06:02:07;0.30;;;0.30;;
76978;SDS011;65911;47.502;19.148;2023-08-06T06:05:10;0.10;;;0.10;;
76978;SDS011;65911;47.502;19.148;2023-08-06T06:08:12;0.77;;;0.17;;
76978;SDS011;65911;47.502;19.148;2023-08-06T06:11:14;1.02;;;0.22;;
76978;SDS011;65911;47.502;19.148;2023-08-06T06:14:20;0.50;;;0.28;;
76978;SDS011;65911;47.502;19.148;2023-08-06T06:17:22;0.70;;;0.28;;
76978;SDS011;65911;47.502;19.148;2023-08-06T06:20:25;0.22;;;0.22;;
76978;SDS011;65911;47.502;19.148;2023-08-06T06:23:27;0.35;;;0.30;;
76978;SDS011;65911;47.502;19.148;2023-08-06T06:26:30;0.13;;;0.00;;
76978;SDS011;65911;47.502;19.148;2023-08-06T06:29:32;0.47;;;0.10;;
76978;SDS011;65911;47.502;19.148;2023-08-06T06:32:34;0.30;;;0.30;;
76978;SDS011;65911;47.502;19.148;2023-08-06T06:35:37;0.20;;;0.15;;
76978;SDS011;65911;47.502;19.148;2023-08-06T06:38:40;0.20;;;0.10;;
76978;SDS011;65911;47.502;19.148;2023-08-06T06:41:42;0.10;;;0.00;;
76978;SDS011;65911;47.502;19.148;2023-08-06T06:44:57;0.20;;;0.17;;
76978;SDS011;65911;47.502;19.148;2023-08-06T06:47:59;0.20;;;0.20;;
76978;SDS011;65911;47.502;19.148;2023-08-06T06:51:01;0.17;;;0.10;;
76978;SDS011;65911;47.502;19.148;2023-08-06T06:54:05;0.20;;;0.20;;
76978;SDS011;65911;47.502;19.148;2023-08-06T06:57:07;0.10;;;0.10;;
76978;SDS011;65911;47.502;19.148;2023-08-06T07:00:09;0.10;;;0.10;;
76978;SDS011;65911;47.502;19.148;2023-08-06T07:03:15;0.80;;;0.20;;
76978;SDS011;65911;47.502;19.148;2023-08-06T07:06:17;1.58;;;0.25;;
76978;SDS011;65911;47.502;19.148;2023-08-06T07:09:20;0.20;;;0.20;;
76978;SDS011;65911;47.502;19.148;2023-08-06T07:12:22;0.17;;;0.10;;
76978;SDS011;65911;47.502;19.148;2023-08-06T07:15:25;0.82;;;0.20;;
76978;SDS011;65911;47.502;19.148;2023-08-06T07:18:28;0.28;;;0.28;;
76978;SDS011;65911;47.502;19.148;2023-08-06T07:21:32;4.55;;;0.20;;
76978;SDS011;65911;47.502;19.148;2023-08-06T07:24:34;0.30;;;0.30;;
76978;SDS011;65911;47.502;19.148;2023-08-06T07:27:36;0.28;;;0.28;;
76978;SDS011;65911;47.502;19.148;2023-08-06T07:30:42;0.30;;;0.20;;
76978;SDS011;65911;47.502;19.148;2023-08-06T07:33:45;0.30;;;0.30;;
76978;SDS011;65911;47.502;19.148;2023-08-06T07:36:47;0.38;;;0.30;;
76978;SDS011;65911;47.502;19.148;2023-08-06T07:39:50;0.30;;;0.30;;
76978;SDS011;65911;47.502;19.148;2023-08-06T07:42:52;0.10;;;0.05;;
76978;SDS011;65911;47.502;19.148;2023-08-06T07:45:57;0.52;;;0.28;;
76978;SDS011;65911;47.502;19.148;2023-08-06T07:49:00;1.23;;;0.17;;
76978;SDS011;65911;47.502;19.148;2023-08-06T07:52:03;0.82;;;0.50;;
76978;SDS011;65911;47.502;19.148;2023-08-06T07:55:05;0.35;;;0.35;;
76978;SDS011;65911;47.502;19.148;2023-08-06T07:58:08;0.20;;;0.17;;
76978;SDS011;65911;47.502;19.148;2023-08-06T08:01:10;1.03;;;0.20;;
76978;SDS011;65911;47.502;19.148;2023-08-06T08:04:12;0.38;;;0.30;;
76978;SDS011;65911;47.502;19.148;2023-08-06T08:07:14;0.30;;;0.20;;
76978;SDS011;65911;47.502;19.148;2023-08-06T08:10:18;0.30;;;0.30;;
76978;SDS011;65911;47.502;19.148;2023-08-06T08:13:20;2.15;;;0.10;;
76978;SDS011;65911;47.502;19.148;2023-08-06T08:16:22;0.40;;;0.38;;
76978;SDS011;65911;47.502;19.148;2023-08-06T08:19:25;0.40;;;0.20;;
76978;SDS011;65911;47.502;19.148;2023-08-06T08:22:27;0.20;;;0.20;;
76978;SDS011;65911;47.502;19.148;2023-08-06T08:25:29;0.20;;;0.20;;
76978;SDS011;65911;47.502;19.148;2023-08-06T08:28:33;0.30;;;0.30;;
76978;SDS011;65911;47.502;19.148;2023-08-06T08:31:35;0.27;;;0.20;;
76978;SDS011;65911;47.502;19.148;2023-08-06T08:34:41;1.77;;;0.30;;
76978;SDS011;65911;47.502;19.148;2023-08-06T08:37:43;0.40;;;0.30;;
76978;SDS011;65911;47.502;19.148;2023-08-06T08:40:46;0.30;;;0.30;;
76978;SDS011;65911;47.502;19.148;2023-08-06T08:43:51;0.25;;;0.10;;
76978;SDS011;65911;47.502;19.148;2023-08-06T08:46:53;0.45;;;0.05;;
76978;SDS011;65911;47.502;19.148;2023-08-06T08:49:56;0.32;;;0.32;;
76978;SDS011;65911;47.502;19.148;2023-08-06T08:52:59;0.30;;;0.30;;
76978;SDS011;65911;47.502;19.148;2023-08-06T08:56:01;0.30;;;0.30;;
76978;SDS011;65911;47.502;19.148;2023-08-06T08:59:04;0.75;;;0.30;;
76978;SDS011;65911;47.502;19.148;2023-08-06T09:02:06;0.37;;;0.20;;
76978;SDS011;65911;47.502;19.148;2023-08-06T09:05:10;0.30;;;0.30;;
76978;SDS011;65911;47.502;19.148;2023-08-06T09:08:15;0.57;;;0.20;;
76978;SDS011;65911;47.502;19.148;2023-08-06T09:11:18;0.67;;;0.30;;
76978;SDS011;65911;47.502;19.148;2023-08-06T09:14:22;1.23;;;0.20;;
76978;SDS011;65911;47.502;19.148;2023-08-06T09:17:25;0.10;;;0.10;;
76978;SDS011;65911;47.502;19.148;2023-08-06T09:20:27;0.25;;;0.10;;
76978;SDS011;65911;47.502;19.148;2023-08-06T09:23:30;0.25;;;0.20;;
76978;SDS011;65911;47.502;19.148;2023-08-06T09:26:33;0.30;;;0.10;;
76978;SDS011;65911;47.502;19.148;2023-08-06T09:29:40;0.43;;;0.00;;
76978;SDS011;65911;47.502;19.148;2023-08-06T09:32:47;0.40;;;0.40;;
76978;SDS011;65911;47.502;19.148;2023-08-06T09:35:53;1.13;;;0.38;;
76978;SDS011;65911;47.502;19.148;2023-08-06T09:38:56;0.25;;;0.10;;
76978;SDS011;65911;47.502;19.148;2023-08-06T09:42:00;0.40;;;0.30;;
76978;SDS011;65911;47.502;19.148;2023-08-06T09:45:06;0.50;;;0.10;;
76978;SDS011;65911;47.502;19.148;2023-08-06T09:48:09;3.72;;;0.45;;
76978;SDS011;65911;47.502;19.148;2023-08-06T09:51:13;0.40;;;0.20;;
76978;SDS011;65911;47.502;19.148;2023-08-06T09:54:16;0.63;;;0.30;;
76978;SDS011;65911;47.502;19.148;2023-08-06T09:57:28;0.20;;;0.20;;
76978;SDS011;65911;47.502;19.148;2023-08-06T10:00:35;0.50;;;0.10;;
76978;SDS011;65911;47.502;19.148;2023-08-06T10:04:12;0.10;;;0.10;;
76978;SDS011;65911;47.502;19.148;2023-08-06T10:07:25;1.80;;;0.22;;
76978;SDS011;65911;47.502;19.148;2023-08-06T10:10:29;0.30;;;0.10;;
76978;SDS011;65911;47.502;19.148;2023-08-06T10:13:34;1.70;;;0.30;;
76978;SDS011;65911;47.502;19.148;2023-08-06T10:16:51;0.70;;;0.35;;
76978;SDS011;65911;47.502;19.148;2023-08-06T10:19:54;0.60;;;0.35;;
76978;SDS011;65911;47.502;19.148;2023-08-06T10:23:05;1.27;;;0.40;;
76978;SDS011;65911;47.502;19.148;2023-08-06T10:26:08;0.30;;;0.10;;
76978;SDS011;65911;47.502;19.148;2023-08-06T10:32:46;0.43;;;0.40;;
76978;SDS011;65911;47.502;19.148;2023-08-06T10:35:50;1.80;;;0.30;;
76978;SDS011;65911;47.502;19.148;2023-08-06T10:38:53;0.30;;;0.10;;
76978;SDS011;65911;47.502;19.148;2023-08-06T10:41:59;0.50;;;0.38;;
76978;SDS011;65911;47.502;19.148;2023-08-06T10:45:16;0.30;;;0.30;;
76978;SDS011;65911;47.502;19.148;2023-08-06T10:48:35;2.03;;;0.17;;
76978;SDS011;65911;47.502;19.148;2023-08-06T10:51:43;0.25;;;0.25;;
76978;SDS011;65911;47.502;19.148;2023-08-06T10:54:46;0.75;;;0.40;;
76978;SDS011;65911;47.502;19.148;2023-08-06T10:57:48;0.60;;;0.50;;
76978;SDS011;65911;47.502;19.148;2023-08-06T11:00:50;0.40;;;0.28;;
76978;SDS011;65911;47.502;19.148;2023-08-06T11:03:53;0.45;;;0.30;;
76978;SDS011;65911;47.502;19.148;2023-08-06T11:06:55;1.27;;;0.23;;
76978;SDS011;65911;47.502;19.148;2023-08-06T12:06:15;0.40;;;0.23;;
76978;SDS011;65911;47.502;19.148;2023-08-06T12:09:17;0.68;;;0.50;;
76978;SDS011;65911;47.502;19.148;2023-08-06T12:12:19;0.20;;;0.20;;
76978;SDS011;65911;47.502;19.148;2023-08-06T12:15:22;1.23;;;0.37;;
76978;SDS011;65911;47.502;19.148;2023-08-06T12:18:25;0.47;;;0.47;;
76978;SDS011;65911;47.502;19.148;2023-08-06T12:21:27;0.40;;;0.30;;
76978;SDS011;65911;47.502;19.148;2023-08-06T12:24:30;1.10;;;0.40;;
76978;SDS011;65911;47.502;19.148;2023-08-06T12:27:34;0.70;;;0.50;;
76978;SDS011;65911;47.502;19.148;2023-08-06T12:30:36;1.17;;;0.50;;
76978;SDS011;65911;47.502;19.148;2023-08-06T12:33:39;1.45;;;0.52;;
76978;SDS011;65911;47.502;19.148;2023-08-06T12:36:41;0.40;;;0.30;;
76978;SDS011;65911;47.502;19.148;2023-08-06T12:39:43;0.47;;;0.10;;
76978;SDS011;65911;47.502;19.148;2023-08-06T12:42:45;0.50;;;0.47;;
76978;SDS011;65911;47.502;19.148;2023-08-06T12:45:48;1.03;;;0.50;;
76978;SDS011;65911;47.502;19.148;2023-08-06T12:48:50;1.20;;;0.50;;
76978;SDS011;65911;47.502;19.148;2023-08-06T12:51:53;0.82;;;0.30;;
76978;SDS011;65911;47.502;19.148;2023-08-06T12:54:55;0.68;;;0.50;;
76978;SDS011;65911;47.502;19.148;2023-08-06T12:57:58;1.15;;;0.70;;
76978;SDS011;65911;47.502;19.148;2023-08-06T13:01:00;0.40;;;0.40;;
76978;SDS011;65911;47.502;19.148;2023-08-06T13:04:02;1.95;;;1.13;;
76978;SDS011;65911;47.502;19.148;2023-08-06T13:07:23;0.30;;;0.20;;
76978;SDS011;65911;47.502;19.148;2023-08-06T13:10:25;0.50;;;0.50;;
76978;SDS011;65911;47.502;19.148;2023-08-06T13:13:29;1.35;;;0.47;;
76978;SDS011;65911;47.502;19.148;2023-08-06T13:16:31;0.60;;;0.57;;
76978;SDS011;65911;47.502;19.148;2023-08-06T13:19:34;2.38;;;0.30;;
76978;SDS011;65911;47.502;19.148;2023-08-06T13:22:36;0.60;;;0.60;;
76978;SDS011;65911;47.502;19.148;2023-08-06T13:25:39;0.60;;;0.57;;
76978;SDS011;65911;47.502;19.148;2023-08-06T13:28:41;0.77;;;0.70;;
76978;SDS011;65911;47.502;19.148;2023-08-06T13:31:44;0.95;;;0.65;;
76978;SDS011;65911;47.502;19.148;2023-08-06T13:34:46;0.77;;;0.60;;
76978;SDS011;65911;47.502;19.148;2023-08-06T13:37:49;0.53;;;0.40;;
76978;SDS011;65911;47.502;19.148;2023-08-06T13:40:51;1.60;;;0.82;;
76978;SDS011;65911;47.502;19.148;2023-08-06T13:43:53;0.60;;;0.43;;
76978;SDS011;65911;47.502;19.148;2023-08-06T13:46:56;0.53;;;0.50;;
76978;SDS011;65911;47.502;19.148;2023-08-06T13:49:58;0.95;;;0.35;;
76978;SDS011;65911;47.502;19.148;2023-08-06T13:53:01;0.95;;;0.60;;
76978;SDS011;65911;47.502;19.148;2023-08-06T13:56:04;0.65;;;0.65;;
76978;SDS011;65911;47.502;19.148;2023-08-06T13:59:07;0.93;;;0.50;;
76978;SDS011;65911;47.502;19.148;2023-08-06T14:02:10;0.80;;;0.80;;
76978;SDS011;65911;47.502;19.148;2023-08-06T14:05:13;1.10;;;0.88;;
76978;SDS011;65911;47.502;19.148;2023-08-06T14:08:15;0.73;;;0.60;;
76978;SDS011;65911;47.502;19.148;2023-08-06T14:11:20;1.15;;;0.40;;
76978;SDS011;65911;47.502;19.148;2023-08-06T14:14:22;0.90;;;0.40;;
76978;SDS011;65911;47.502;19.148;2023-08-06T14:17:29;3.90;;;0.77;;
76978;SDS011;65911;47.502;19.148;2023-08-06T14:20:31;1.05;;;0.90;;
76978;SDS011;65911;47.502;19.148;2023-08-06T14:23:33;1.08;;;0.98;;
76978;SDS011;65911;47.502;19.148;2023-08-06T14:26:36;1.20;;;1.10;;
76978;SDS011;65911;47.502;19.148;2023-08-06T14:29:39;1.30;;;1.00;;
76978;SDS011;65911;47.502;19.148;2023-08-06T14:32:41;1.20;;;0.80;;
76978;SDS011;65911;47.502;19.148;2023-08-06T14:35:43;1.60;;;1.08;;
76978;SDS011;65911;47.502;19.148;2023-08-06T14:38:46;1.53;;;0.90;;
76978;SDS011;65911;47.502;19.148;2023-08-06T14:42:00;1.02;;;0.65;;
76978;SDS011;65911;47.502;19.148;2023-08-06T14:45:04;0.77;;;0.77;;
76978;SDS011;65911;47.502;19.148;2023-08-06T14:48:06;0.70;;;0.60;;
76978;SDS011;65911;47.502;19.148;2023-08-06T14:51:09;0.80;;;0.80;;
76978;SDS011;65911;47.502;19.148;2023-08-06T14:54:11;2.63;;;1.00;;
76978;SDS011;65911;47.502;19.148;2023-08-06T14:57:13;2.35;;;0.77;;
76978;SDS011;65911;47.502;19.148;2023-08-06T15:00:15;2.97;;;0.73;;
76978;SDS011;65911;47.502;19.148;2023-08-06T15:03:18;1.23;;;0.75;;
76978;SDS011;65911;47.502;19.148;2023-08-06T15:06:20;1.02;;;0.80;;
76978;SDS011;65911;47.502;19.148;2023-08-06T15:09:22;1.23;;;0.67;;
76978;SDS011;65911;47.502;19.148;2023-08-06T15:12:24;1.83;;;0.88;;
76978;SDS011;65911;47.502;19.148;2023-08-06T15:15:27;0.65;;;0.65;;
76978;SDS011;65911;47.502;19.148;2023-08-06T15:18:29;0.67;;;0.60;;
76978;SDS011;65911;47.502;19.148;2023-08-06T15:21:31;1.00;;;0.70;;
76978;SDS011;65911;47.502;19.148;2023-08-06T15:24:33;0.90;;;0.90;;
76978;SDS011;65911;47.502;19.148;2023-08-06T15:27:36;1.08;;;0.98;;
76978;SDS011;65911;47.502;19.148;2023-08-06T15:30:38;1.08;;;1.00;;
76978;SDS011;65911;47.502;19.148;2023-08-06T15:33:42;1.90;;;0.80;;
76978;SDS011;65911;47.502;19.148;2023-08-06T15:36:44;3.10;;;1.10;;
76978;SDS011;65911;47.502;19.148;2023-08-06T15:39:47;1.00;;;0.60;;
76978;SDS011;65911;47.502;19.148;2023-08-06T15:42:49;1.52;;;0.80;;
76978;SDS011;65911;47.502;19.148;2023-08-06T15:45:52;1.48;;;0.93;;
76978;SDS011;65911;47.502;19.148;2023-08-06T15:48:54;1.07;;;0.97;;
76978;SDS011;65911;47.502;19.148;2023-08-06T15:51:56;1.15;;;0.70;;
76978;SDS011;65911;47.502;19.148;2023-08-06T15:54:58;2.50;;;1.00;;
76978;SDS011;65911;47.502;19.148;2023-08-06T15:58:05;1.65;;;1.05;;
76978;SDS011;65911;47.502;19.148;2023-08-06T16:01:07;1.23;;;1.00;;
76978;SDS011;65911;47.502;19.148;2023-08-06T16:04:09;0.77;;;0.77;;
76978;SDS011;65911;47.502;19.148;2023-08-06T16:07:12;2.17;;;0.60;;
76978;SDS011;65911;47.502;19.148;2023-08-06T16:10:14;0.90;;;0.90;;
76978;SDS011;65911;47.502;19.148;2023-08-06T16:13:16;1.70;;;0.82;;
76978;SDS011;65911;47.502;19.148;2023-08-06T16:16:19;0.80;;;0.80;;
76978;SDS011;65911;47.502;19.148;2023-08-06T16:19:21;2.50;;;0.90;;
76978;SDS011;65911;47.502;19.148;2023-08-06T16:22:26;1.02;;;0.95;;
76978;SDS011;65911;47.502;19.148;2023-08-06T16:25:28;1.42;;;1.10;;
76978;SDS011;65911;47.502;19.148;2023-08-06T16:28:31;1.20;;;0.85;;
76978;SDS011;65911;47.502;19.148;2023-08-06T16:31:33;1.25;;;0.80;;
76978;SDS011;65911;47.502;19.148;2023-08-06T16:34:35;1.23;;;0.88;;
76978;SDS011;65911;47.502;19.148;2023-08-06T16:37:38;1.55;;;0.95;;
76978;SDS011;65911;47.502;19.148;2023-08-06T16:40:40;0.73;;;0.73;;
76978;SDS011;65911;47.502;19.148;2023-08-06T16:43:43;0.93;;;0.85;;
76978;SDS011;65911;47.502;19.148;2023-08-06T16:46:46;0.70;;;0.55;;
76978;SDS011;65911;47.502;19.148;2023-08-06T16:49:48;1.03;;;1.00;;
76978;SDS011;65911;47.502;19.148;2023-08-06T16:52:50;0.65;;;0.60;;
76978;SDS011;65911;47.502;19.148;2023-08-06T16:55:53;0.70;;;0.70;;
76978;SDS011;65911;47.502;19.148;2023-08-06T16:58:55;1.67;;;0.90;;
76978;SDS011;65911;47.502;19.148;2023-08-06T17:01:57;0.60;;;0.60;;
76978;SDS011;65911;47.502;19.148;2023-08-06T17:05:00;1.35;;;1.10;;
76978;SDS011;65911;47.502;19.148;2023-08-06T17:08:02;1.25;;;1.13;;
76978;SDS011;65911;47.502;19.148;2023-08-06T17:11:04;1.20;;;1.10;;
76978;SDS011;65911;47.502;19.148;2023-08-06T17:14:06;1.00;;;1.00;;
76978;SDS011;65911;47.502;19.148;2023-08-06T17:17:09;1.73;;;0.80;;
76978;SDS011;65911;47.502;19.148;2023-08-06T17:20:11;1.27;;;0.87;;
76978;SDS011;65911;47.502;19.148;2023-08-06T17:23:13;1.58;;;1.17;;
76978;SDS011;65911;47.502;19.148;2023-08-06T17:26:16;1.25;;;1.02;;
76978;SDS011;65911;47.502;19.148;2023-08-06T17:29:18;1.10;;;1.00;;
76978;SDS011;65911;47.502;19.148;2023-08-06T17:32:20;1.30;;;0.88;;
76978;SDS011;65911;47.502;19.148;2023-08-06T17:35:22;2.50;;;0.88;;
76978;SDS011;65911;47.502;19.148;2023-08-06T17:38:25;0.93;;;0.90;;
76978;SDS011;65911;47.502;19.148;2023-08-06T17:41:27;1.00;;;0.90;;
76978;SDS011;65911;47.502;19.148;2023-08-06T17:44:29;1.35;;;1.15;;
76978;SDS011;65911;47.502;19.148;2023-08-06T17:47:32;1.38;;;0.95;;
76978;SDS011;65911;47.502;19.148;2023-08-06T17:50:39;1.40;;;1.03;;
76978;SDS011;65911;47.502;19.148;2023-08-06T17:53:42;0.85;;;0.65;;
76978;SDS011;65911;47.502;19.148;2023-08-06T17:56:44;1.08;;;0.90;;
76978;SDS011;65911;47.502;19.148;2023-08-06T17:59:46;0.95;;;0.90;;
76978;SDS011;65911;47.502;19.148;2023-08-06T18:02:48;1.13;;;1.02;;
76978;SDS011;65911;47.502;19.148;2023-08-06T18:05:55;1.25;;;1.08;;
76978;SDS011;65911;47.502;19.148;2023-08-06T18:09:00;0.77;;;0.75;;
76978;SDS011;65911;47.502;19.148;2023-08-06T18:12:03;0.80;;;0.80;;
76978;SDS011;65911;47.502;19.148;2023-08-06T18:15:06;0.70;;;0.60;;
76978;SDS011;65911;47.502;19.148;2023-08-06T18:18:08;2.67;;;1.00;;
76978;SDS011;65911;47.502;19.148;2023-08-06T18:21:13;1.10;;;0.87;;
76978;SDS011;65911;47.502;19.148;2023-08-06T18:24:16;2.40;;;1.05;;
76978;SDS011;65911;47.502;19.148;2023-08-06T18:27:18;1.88;;;0.90;;
76978;SDS011;65911;47.502;19.148;2023-08-06T18:30:20;1.67;;;1.08;;
76978;SDS011;65911;47.502;19.148;2023-08-06T18:33:22;2.03;;;1.50;;
76978;SDS011;65911;47.502;19.148;2023-08-06T18:36:25;1.23;;;0.82;;
76978;SDS011;65911;47.502;19.148;2023-08-06T18:39:27;1.58;;;0.60;;
76978;SDS011;65911;47.502;19.148;2023-08-06T18:42:29;0.60;;;0.60;;
76978;SDS011;65911;47.502;19.148;2023-08-06T18:45:31;1.25;;;0.80;;
76978;SDS011;65911;47.502;19.148;2023-08-06T18:48:38;1.55;;;0.90;;
76978;SDS011;65911;47.502;19.148;2023-08-06T18:51:42;3.03;;;1.20;;
76978;SDS011;65911;47.502;19.148;2023-08-06T18:54:44;2.65;;;1.00;;
76978;SDS011;65911;47.502;19.148;2023-08-06T18:57:46;1.08;;;0.93;;
76978;SDS011;65911;47.502;19.148;2023-08-06T19:00:48;1.08;;;0.98;;
76978;SDS011;65911;47.502;19.148;2023-08-06T19:03:51;1.52;;;1.30;;
76978;SDS011;65911;47.502;19.148;2023-08-06T19:06:53;2.03;;;0.90;;